Overview Statistics Trail Chart Weather Telemetry Raw packets
 

This is the latest recevied weather packets stored in our database for station/object XE2B-20. If no packets are shown the sender has not sent any weather packets the latest 10 day(s).

<< 1 2 3 4 5 >>
Time Temp. Humidity Pressure Rain* Wind** Luminosity Snow
1788646988 36.67° C 36% 804.6 hPa - - - -
1788645495 37.22° C 36% 804.9 hPa - - - -
1788643994 37.78° C 36% 805.1 hPa - - - -
1788642496 36.67° C 37% 805.4 hPa - - - -
1788640998 36.67° C 37% 805.7 hPa - - - -
1788639500 34.44° C 41% 806 hPa - - - -
1788638008 34.44° C 40% 806.6 hPa - - - -
1788636502 34.44° C 40% 806.8 hPa - - - -
1788634390 33.33° C 42% 807.5 hPa - - - -
1788632894 35° C 40% 807.9 hPa - - - -
1788631395 33.89° C 42% 808.1 hPa - - - -
1788629897 33.89° C 42% 808.3 hPa - - - -
1788628399 33.89° C 42% 808.8 hPa - - - -
1788626900 33.33° C 42% 808.9 hPa - - - -
1788625404 31.11° C 44% 809 hPa - - - -
1788623905 30.56° C 44% 809 hPa - - - -
1788622402 28.89° C 45% 809.1 hPa - - - -
1788620904 27.22° C 46% 809.3 hPa - - - -
1788619404 24.44° C 49% 809.2 hPa - - - -
1788617905 22.78° C 49% 808.9 hPa - - - -
1788616406 20° C 51% 808.7 hPa - - - -
1788614906 15° C 59% 808.4 hPa - - - -
1788613405 12.22° C 65% 808.1 hPa - - - -
1788611906 11.67° C 66% 807.8 hPa - - - -
1788610407 12.22° C 65% 807.7 hPa - - - -

* Rain since midnight (hover to see other rain measurements)
** Current wind speed in m/s (hover to see current wind gust speed)